Home > Products > Valid Products > TAF

000
FTUS46 KLOX 220500
TAFLAX
TAF
KLAX 220526Z 2206/2312 VRB03KT P6SM SKC
     FM221900 26010KT P6SM SKC
     FM230400 VRB03KT P6SM SKC=



000
FTUS46 KLOX 220500
TAFBUR
TAF
KBUR 220526Z 2206/2306 VRB03KT P6SM SKC
     FM222000 17008KT P6SM SKC
     FM230200 VRB03KT P6SM SKC=



000
FTUS46 KLOX 220500
TAFPMD
TAF
KPMD 220526Z 2206/2306 29010KT P6SM SKC
     FM221300 VRB03KT P6SM SKC
     FM222000 31012KT P6SM SKC
     FM230500 VRB03KT P6SM SKC=



000
FTUS46 KLOX 220500
TAFPRB
TAF
KPRB 220526Z 2206/2306 VRB03KT P6SM SKC
     FM222200 10008KT P6SM SKC
     FM230200 32008KT P6SM SKC=



000
FTUS46 KLOX 220500
TAFWJF
TAF
KWJF 220526Z 2206/2306 28014KT P6SM SKC
     FM221200 VRB05KT P6SM SKC
     FM222000 29014KT P6SM SKC
     FM230500 30008KT P6SM SKC=



000
FTUS46 KLOX 220500
TAFSBP
TAF
KSBP 220526Z 2206/2306 32008KT P6SM SKC
     FM220800 VRB03KT P6SM SKC
     FM222000 34008KT P6SM SKC
     FM222200 32014G22KT P6SM SKC
     FM230200 32010KT P6SM SKC=



000
FTUS46 KLOX 220500
TAFVNY
TAF
KVNY 220526Z 2206/2306 VRB03KT P6SM SKC
     FM222100 14007KT P6SM SKC
     FM230200 VRB03KT P6SM SKC=



000
FTUS46 KLOX 220500
TAFSMX
TAF
KSMX 220526Z 2206/2306 30008KT P6SM SKC
     FM220800 VRB03KT P6SM SKC
     FM221600 01010KT P6SM SKC
     FM222200 30014G22KT P6SM SKC
     FM230200 30010KT P6SM SKC=



000
FTUS46 KLOX 220500
TAFLGB
TAF
KLGB 220526Z 2206/2306 VRB03KT P6SM SKC
     FM222000 19007KT P6SM SKC
     FM222300 29008KT P6SM SKC
     FM230300 VRB03KT P6SM SKC=



000
FTUS46 KLOX 220500
TAFSBA
TAF
KSBA 220526Z 2206/2306 VRB03KT P6SM SKC
     FM221900 16007KT P6SM SKC
     FM222300 24008KT P6SM SKC
     FM230200 VRB03KT P6SM SKC=



000
FTUS46 KLOX 220500
TAFLAX
TAF
KLAX 220526Z 2206/2312 VRB03KT P6SM SKC
     FM221900 26010KT P6SM SKC
     FM230400 VRB03KT P6SM SKC=



000
FTUS46 KLOX 220500
TAFVNY
TAF
KVNY 220526Z 2206/2306 VRB03KT P6SM SKC
     FM222100 14007KT P6SM SKC
     FM230200 VRB03KT P6SM SKC=



000
FTUS46 KLOX 220500
TAFSBP
TAF
KSBP 220526Z 2206/2306 32008KT P6SM SKC
     FM220800 VRB03KT P6SM SKC
     FM222000 34008KT P6SM SKC
     FM222200 32014G22KT P6SM SKC
     FM230200 32010KT P6SM SKC=



000
FTUS46 KLOX 220500
TAFWJF
TAF
KWJF 220526Z 2206/2306 28014KT P6SM SKC
     FM221200 VRB05KT P6SM SKC
     FM222000 29014KT P6SM SKC
     FM230500 30008KT P6SM SKC=



000
FTUS46 KLOX 220500
TAFPRB
TAF
KPRB 220526Z 2206/2306 VRB03KT P6SM SKC
     FM222200 10008KT P6SM SKC
     FM230200 32008KT P6SM SKC=



000
FTUS46 KLOX 220500
TAFPMD
TAF
KPMD 220526Z 2206/2306 29010KT P6SM SKC
     FM221300 VRB03KT P6SM SKC
     FM222000 31012KT P6SM SKC
     FM230500 VRB03KT P6SM SKC=



000
FTUS46 KLOX 220500
TAFBUR
TAF
KBUR 220526Z 2206/2306 VRB03KT P6SM SKC
     FM222000 17008KT P6SM SKC
     FM230200 VRB03KT P6SM SKC=



000
FTUS46 KLOX 220500
TAFLGB
TAF
KLGB 220526Z 2206/2306 VRB03KT P6SM SKC
     FM222000 19007KT P6SM SKC
     FM222300 29008KT P6SM SKC
     FM230300 VRB03KT P6SM SKC=



000
FTUS46 KLOX 220500
TAFSBA
TAF
KSBA 220526Z 2206/2306 VRB03KT P6SM SKC
     FM221900 16007KT P6SM SKC
     FM222300 24008KT P6SM SKC
     FM230200 VRB03KT P6SM SKC=



000
FTUS46 KLOX 220500
TAFSMX
TAF
KSMX 220526Z 2206/2306 30008KT P6SM SKC
     FM220800 VRB03KT P6SM SKC
     FM221600 01010KT P6SM SKC
     FM222200 30014G22KT P6SM SKC
     FM230200 30010KT P6SM SKC=



000
FTUS46 KLOX 220000 AAA
TAFSMX
TAF AMD
KSMX 220045Z 2201/2224 29015G22KT P6SM SKC
     FM220300 31008KT P6SM SKC
     FM220700 VRB04KT P6SM SKC
     FM221200 02008KT P6SM SKC
     FM221700 33008KT P6SM SKC
     FM222100 32014G22KT P6SM SKC=



000
FTUS46 KLOX 220000 AAA
TAFLAX
TAF AMD
KLAX 220045Z 2201/2306 26011KT P6SM SCT150
     FM220400 VRB03KT P6SM SKC
     FM221000 VRB03KT 5SM BR SCT006
     FM221600 26005KT P6SM SKC
     FM222000 26012KT P6SM SKC
     FM230300 26006KT P6SM SKC=



000
FTUS46 KLOX 212300 RRA
TAFLGB
TAF
KLGB 212345Z 2200/2224 29010KT P6SM SKC
     FM220400 VRB03KT P6SM SKC
     FM221100 VRB03KT 5SM BR BKN007
     FM221600 VRB03KT P6SM SKC
     FM222000 21007KT P6SM SKC
     FM222300 29008KT P6SM SKC=



000
FTUS46 KLOX 212300 RRA
TAFBUR
TAF
KBUR 212345Z 2200/2224 18008KT P6SM SKC
     FM220300 VRB03KT P6SM SKC
     FM222000 18008KT P6SM SKC=



000
FTUS46 KLOX 212300 RRA
TAFPMD
TAF
KPMD 212345Z 2200/2224 31014KT P6SM SKC
     FM220300 26010KT P6SM SKC
     FM221300 VRB04KT P6SM SKC
     FM222000 02005KT P6SM SKC=



000
FTUS46 KLOX 212300 RRA
TAFSBP
TAF
KSBP 212345Z 2200/2224 33015G22KT P6SM SKC
     FM220300 31008KT P6SM SKC
     FM220700 VRB04KT P6SM SKC
     FM222000 31014G22KT P6SM SKC=



000
FTUS46 KLOX 212300 RRA
TAFLAX
TAF
KLAX 212345Z 2200/2306 26011KT P6SM SCT150
     FM220400 VRB03KT P6SM SKC
     FM221000 VRB03KT P6SM SCT010
     FM221600 26005KT P6SM SKC
     FM222000 26012KT P6SM SKC
     FM230300 26006KT P6SM SKC=



000
FTUS46 KLOX 212300 RRA
TAFWJF
TAF
KWJF 212345Z 2200/2224 28020KT P6SM SKC
     FM220300 26015KT P6SM SKC
     FM221200 VRB05KT P6SM SKC
     FM222100 33006KT P6SM SKC=



000
FTUS46 KLOX 212300 RRA
TAFSBA
TAF
KSBA 212345Z 2200/2224 24008KT P6SM SKC
     FM220100 VRB03KT P6SM SKC WS015/36025KT
     FM220600 VRB03KT P6SM SKC
     FM221900 20006KT P6SM SKC
     FM222300 24008KT P6SM SKC=



000
FTUS46 KLOX 212300 RRA
TAFPRB
TAF
KPRB 212345Z 2200/2224 VRB03KT P6SM SKC
     FM220500 VRB03KT P6SM SKC
     FM222100 05007KT P6SM SKC=



000
FTUS46 KLOX 212300 RRA
TAFSMX
TAF
KSMX 212345Z 2200/2224 32018G26KT P6SM SKC
     FM220300 31008KT P6SM SKC
     FM220700 VRB04KT P6SM SKC
     FM221200 02008KT P6SM SKC
     FM221700 33008KT P6SM SKC
     FM222100 32014G22KT P6SM SKC=



000
FTUS46 KLOX 212300 RRA
TAFVNY
TAF
KVNY 212345Z 2200/2224 13006KT P6SM SKC
     FM220300 VRB03KT P6SM SKC
     FM222100 16007KT P6SM SKC=



000
FTUS46 KLOX 212300 RRA
TAFWJF
TAF
KWJF 212345Z 2200/2224 28020KT P6SM SKC
     FM220300 26015KT P6SM SKC
     FM221200 VRB05KT P6SM SKC
     FM222100 33006KT P6SM SKC=



000
FTUS46 KLOX 212300 RRA
TAFPMD
TAF
KPMD 212345Z 2200/2224 31014KT P6SM SKC
     FM220300 26010KT P6SM SKC
     FM221300 VRB04KT P6SM SKC
     FM222000 02005KT P6SM SKC=



000
FTUS46 KLOX 212300 RRA
TAFPRB
TAF
KPRB 212345Z 2200/2224 VRB03KT P6SM SKC
     FM220500 VRB03KT P6SM SKC
     FM222100 05007KT P6SM SKC=



000
FTUS46 KLOX 212300 RRA
TAFLGB
TAF
KLGB 212345Z 2200/2224 29010KT P6SM SKC
     FM220400 VRB03KT P6SM SKC
     FM221100 VRB03KT 5SM BR BKN007
     FM221600 VRB03KT P6SM SKC
     FM222000 21007KT P6SM SKC
     FM222300 29008KT P6SM SKC=



000
FTUS46 KLOX 212300 RRA
TAFSBP
TAF
KSBP 212345Z 2200/2224 33015G22KT P6SM SKC
     FM220300 31008KT P6SM SKC
     FM220700 VRB04KT P6SM SKC
     FM222000 31014G22KT P6SM SKC=



000
FTUS46 KLOX 212300 RRA
TAFBUR
TAF
KBUR 212345Z 2200/2224 18008KT P6SM SKC
     FM220300 VRB03KT P6SM SKC
     FM222000 18008KT P6SM SKC=



000
FTUS46 KLOX 212300 RRA
TAFSBA
TAF
KSBA 212345Z 2200/2224 24008KT P6SM SKC
     FM220100 VRB03KT P6SM SKC WS015/36025KT
     FM220600 VRB03KT P6SM SKC
     FM221900 20006KT P6SM SKC
     FM222300 24008KT P6SM SKC=



000
FTUS46 KLOX 212300 RRA
TAFSMX
TAF
KSMX 212345Z 2200/2224 32018G26KT P6SM SKC
     FM220300 31008KT P6SM SKC
     FM220700 VRB04KT P6SM SKC
     FM221200 02008KT P6SM SKC
     FM221700 33008KT P6SM SKC
     FM222100 32014G22KT P6SM SKC=



000
FTUS46 KLOX 212300 RRA
TAFVNY
TAF
KVNY 212345Z 2200/2224 13006KT P6SM SKC
     FM220300 VRB03KT P6SM SKC
     FM222100 16007KT P6SM SKC=



000
FTUS46 KLOX 212300 RRA
TAFLAX
TAF
KLAX 212345Z 2200/2306 26011KT P6SM SCT150
     FM220400 VRB03KT P6SM SKC
     FM221000 VRB03KT P6SM SCT010
     FM221600 26005KT P6SM SKC
     FM222000 26012KT P6SM SKC
     FM230300 26006KT P6SM SKC=



000
FTUS46 KLOX 212200 AAC
TAFSMX
TAF AMD
KSMX 212201Z 2122/2218 29020KT P6SM SKC
     FM212300 32018G26KT P6SM SKC
     FM220300 31008KT P6SM SKC
     FM220700 VRB03KT P6SM SKC=



000
FTUS46 KLOX 212200 AAB
TAFSBP
TAF AMD
KSBP 212201Z 2122/2218 33016G22KT P6SM SKC
     FM220300 31008KT P6SM SKC
     FM220700 VRB03KT P6SM SKC=



000
FTUS46 KLOX 212200 AAC
TAFSMX
TAF AMD
KSMX 212201Z 2122/2218 29020KT P6SM SKC
     FM212300 32018G26KT P6SM SKC
     FM220300 31008KT P6SM SKC
     FM220700 VRB03KT P6SM SKC=



000
FTUS46 KLOX 212200 AAB
TAFSBP
TAF AMD
KSBP 212201Z 2122/2218 33016G22KT P6SM SKC
     FM220300 31008KT P6SM SKC
     FM220700 VRB03KT P6SM SKC=



000
FTUS46 KLOX 212100 AAC
TAFLAX
TAF AMD
KLAX 212159Z 2122/2224 26012KT P6SM FEW050 SCT060 BKN180 BKN250
     FM220000 26012KT P6SM FEW250
     FM220400 VRB03KT P6SM SKC
     FM221000 VRB03KT 5SM BR BKN005
     FM221600 26005KT P6SM SKC
     FM222000 26010KT P6SM SKC=



000
FTUS46 KLOX 212100 AAC
TAFLAX
TAF AMD
KLAX 212159Z 2122/2224 26012KT P6SM FEW050 SCT060 BKN180 BKN250
     FM220000 26012KT P6SM FEW250
     FM220400 VRB03KT P6SM SKC
     FM221000 VRB03KT 5SM BR BKN005
     FM221600 26005KT P6SM SKC
     FM222000 26010KT P6SM SKC=



000
FTUS46 KLOX 212100 AAB
TAFLAX
TAF AMD
KLAX 212157Z 2122/2224 26012KT P6SM FEW200
     FM220400 VRB03KT P6SM SKC
     FM221000 VRB03KT 5SM BR BKN005
     FM221600 26005KT P6SM SKC
     FM222000 26010KT P6SM SKC=



000
FTUS46 KLOX 212100 AAB
TAFLAX
TAF AMD
KLAX 212157Z 2122/2224 26012KT P6SM FEW200
     FM220400 VRB03KT P6SM SKC
     FM221000 VRB03KT 5SM BR BKN005
     FM221600 26005KT P6SM SKC
     FM222000 26010KT P6SM SKC=



000
FTUS46 KLOX 212000 AAA
TAFLAX
TAF AMD
KLAX 212052Z 2121/2224 25010KT P6SM SCT180 BKN200
     FM220400 VRB03KT P6SM SKC
     FM221000 VRB03KT 5SM BR BKN005
     FM221600 26005KT P6SM SKC
     FM222000 26010KT P6SM SKC=



000
FTUS46 KLOX 212000 AAB
TAFSMX
TAF AMD
KSMX 212048Z 2121/2218 03020G24KT P6SM SKC
     FM212300 32015G22KT P6SM SKC
     FM220300 31008KT P6SM SKC
     FM220700 VRB03KT P6SM SKC=



000
FTUS46 KLOX 212000 AAA
TAFSBP
TAF AMD
KSBP 212048Z 2121/2218 34010KT P6SM SCT200
     FM212200 32015G22KT P6SM SCT200
     FM220300 31008KT P6SM SKC
     FM220700 VRB03KT P6SM SKC=



000
FTUS46 KLOX 211800 AAA
TAFPRB
TAF AMD
KPRB 211817Z 2118/2218 00000KT P6SM SCT023
     FM212000 34009KT P6SM SKC
     FM220000 05008KT P6SM SKC
     FM220500 VRB03KT P6SM SKC
     FM221100 VRB03KT P6SM BKN010=



000
FTUS46 KLOX 211800 AAA
TAFSMX
TAF AMD
KSMX 211816Z 2118/2218 03012G21KT P6SM BKN250
     FM212000 32015G22KT P6SM SCT200
     FM220300 31008KT P6SM SKC
     FM220700 VRB03KT P6SM SKC=



000
FTUS46 KLOX 211800 AAA
TAFLGB
TAF AMD
KLGB 211816Z 2118/2218 00000KT P6SM SCT016
     FM211830 18007KT P6SM SKC
     FM220000 28008KT P6SM SKC
     FM220400 VRB03KT P6SM SKC
     FM221100 VRB03KT 5SM BR BKN007=



000
FTUS46 KLOX 211700
TAFPMD
TAF
KPMD 211724Z 2118/2218 30013KT P6SM SKC
     FM212100 27015G20KT P6SM SKC
     FM220300 26008KT P6SM SKC=



000
FTUS46 KLOX 211700
TAFSMX
TAF
KSMX 211724Z 2118/2218 36011KT P6SM SCT200
     FM212000 32015G22KT P6SM SCT200
     FM220300 31008KT P6SM SKC
     FM220700 VRB03KT P6SM SKC=



000
FTUS46 KLOX 211700
TAFPRB
TAF
KPRB 211724Z 2118/2218 32006KT P6SM OVC024
     FM212000 34009KT P6SM SKC
     FM220000 05008KT P6SM SKC
     FM220500 VRB03KT P6SM SKC
     FM221100 VRB03KT P6SM BKN010=



000
FTUS46 KLOX 211700
TAFBUR
TAF
KBUR 211724Z 2118/2218 00000KT 6SM HZ SKC
     FM212000 18008KT P6SM SKC
     FM220300 VRB03KT P6SM SKC=



000
FTUS46 KLOX 211700
TAFWJF
TAF
KWJF 211724Z 2118/2218 28021KT P6SM SKC
     FM212100 27017G25KT P6SM SKC
     FM220300 26008KT P6SM SKC=



000
FTUS46 KLOX 211700
TAFLAX
TAF
KLAX 211724Z 2118/2224 VRB03KT P6SM FEW020
     FM212000 26010KT P6SM SKC
     FM220400 VRB03KT P6SM SKC
     FM221000 VRB03KT 5SM BR BKN005
     FM221600 26005KT P6SM SKC
     FM222000 26010KT P6SM SKC=



000
FTUS46 KLOX 211700
TAFSBA
TAF
KSBA 211724Z 2118/2218 00000KT P6SM SKC
     FM212200 24008KT P6SM SKC
     FM220100 VRB03KT P6SM SKC WS015/36025KT
     FM220900 VRB03KT P6SM SKC=



000
FTUS46 KLOX 211700
TAFVNY
TAF
KVNY 211724Z 2118/2218 00000KT 6SM BR SKC
     FM212000 15008KT P6SM SKC
     FM220300 VRB03KT P6SM SKC=



000
FTUS46 KLOX 211700
TAFLGB
TAF
KLGB 211724Z 2118/2218 00000KT P6SM BKN014
     FM211830 18007KT P6SM SKC
     FM220000 28008KT P6SM SKC
     FM220400 VRB03KT P6SM SKC
     FM221100 VRB03KT 5SM BR BKN007=



000
FTUS46 KLOX 211700
TAFSBP
TAF
KSBP 211724Z 2118/2218 34010KT P6SM SCT200
     FM212000 32015G22KT P6SM SCT200
     FM220300 31008KT P6SM SKC
     FM220700 VRB03KT P6SM SKC=



000
FTUS46 KLOX 211600 AAA
TAFLGB
TAF AMD
KLGB 211609Z 2116/2212 00000KT P6SM OVC014
     FM211800 VRB03KT P6SM SKC
     FM211900 18007KT P6SM SKC
     FM220000 28008KT P6SM SKC
     FM220400 VRB03KT P6SM SKC
     FM221100 VRB03KT 5SM BR BKN007=



000
FTUS46 KLOX 211600 AAA
TAFLGB
TAF AMD
KLGB 211609Z 2116/2212 00000KT P6SM OVC014
     FM211800 VRB03KT P6SM SKC
     FM211900 18007KT P6SM SKC
     FM220000 28008KT P6SM SKC
     FM220400 VRB03KT P6SM SKC
     FM221100 VRB03KT 5SM BR BKN007=



000
FTUS46 KLOX 211600 AAC
TAFBUR
TAF AMD
KBUR 211608Z 2116/2212 00000KT 2SM BR BKN002
     FM211630 VRB03KT 4SM HZ SCT003
     FM212000 18008KT P6SM SKC
     FM220300 VRB03KT P6SM SKC=



000
FTUS46 KLOX 211600 AAC
TAFBUR
TAF AMD
KBUR 211608Z 2116/2212 00000KT 2SM BR BKN002
     FM211630 VRB03KT 4SM HZ SCT003
     FM212000 18008KT P6SM SKC
     FM220300 VRB03KT P6SM SKC=



000
FTUS46 KLOX 211500 AAB
TAFBUR
TAF AMD
KBUR 211552Z 2116/2212 00000KT 3/4SM BR OVC001
     FM211630 VRB03KT 4SM HZ SCT003
     FM212000 18008KT P6SM SKC
     FM220300 VRB03KT P6SM SKC=



000
FTUS46 KLOX 211500 AAB
TAFBUR
TAF AMD
KBUR 211552Z 2116/2212 00000KT 3/4SM BR OVC001
     FM211630 VRB03KT 4SM HZ SCT003
     FM212000 18008KT P6SM SKC
     FM220300 VRB03KT P6SM SKC=



000
FTUS46 KLOX 211500 AAA
TAFSBP
TAF AMD
KSBP 211536Z 2116/2212 31007KT P6SM SKC WS010/03030KT
     FM212000 31015G22KT P6SM SKC
     FM220300 31008KT P6SM SKC
     FM220700 VRB03KT P6SM SKC=



000
FTUS46 KLOX 211500 AAA
TAFSBP
TAF AMD
KSBP 211536Z 2116/2212 31007KT P6SM SKC WS010/03030KT
     FM212000 31015G22KT P6SM SKC
     FM220300 31008KT P6SM SKC
     FM220700 VRB03KT P6SM SKC=



000
FTUS46 KLOX 211500 AAD
TAFVNY
TAF AMD
KVNY 211535Z 2116/2212 00000KT 3SM BR SKC
     FM211700 VRB03KT P6SM SKC
     FM212000 15008KT P6SM SKC
     FM220300 VRB03KT P6SM SKC=



000
FTUS46 KLOX 211500 AAD
TAFVNY
TAF AMD
KVNY 211535Z 2116/2212 00000KT 3SM BR SKC
     FM211700 VRB03KT P6SM SKC
     FM212000 15008KT P6SM SKC
     FM220300 VRB03KT P6SM SKC=



000
FTUS46 KLOX 211500 AAA
TAFBUR
TAF AMD
KBUR 211509Z 2115/2212 00000KT 1/2SM FG VV002
     FM211630 VRB03KT 4SM HZ SCT003
     FM212000 18008KT P6SM SKC
     FM220300 VRB03KT P6SM SKC=



000
FTUS46 KLOX 211400 AAB
TAFLAX
TAF AMD
KLAX 211451Z 2115/2218 12004KT 5SM BR FEW011 SCT016
     FM212000 26012KT P6SM SKC
     FM220400 26006KT P6SM SKC
     FM221000 VRB03KT 5SM BR BKN005
     FM221600 VRB03KT P6SM SKC=



000
FTUS46 KLOX 211400 AAA
TAFSMX
TAF AMD
KSMX 211409Z 2114/2212 32009G17KT P6SM SKC
     FM211600 35010G17KT P6SM SKC
     FM212000 31015G22KT P6SM SKC
     FM220300 31008KT P6SM SKC
     FM220700 VRB03KT P6SM SKC=



000
FTUS46 KLOX 211400 AAC
TAFVNY
TAF AMD
KVNY 211406Z 2114/2212 VRB03KT 1/4SM FG VV001
     FM211600 VRB03KT 2SM BR BKN003
     FM211700 VRB03KT P6SM SKC
     FM212000 15008KT P6SM SKC
     FM220300 VRB03KT P6SM SKC=



000
FTUS46 KLOX 211200 AAA
TAFLAX
TAF AMD
KLAX 211228Z 2112/2218 VRB03KT P6SM FEW014
     FM212000 26012KT P6SM SKC
     FM220400 26006KT P6SM SKC
     FM221000 VRB03KT 5SM BR BKN005
     FM221600 VRB03KT P6SM SKC=



000
FTUS46 KLOX 211200 AAB
TAFVNY
TAF AMD
KVNY 211227Z 2112/2212 VRB03KT 1/2SM FG VV001
     FM211400 VRB03KT 2SM BR BKN003
     FM211500 VRB03KT P6SM SKC
     FM212000 15008KT P6SM SKC
     FM220300 VRB03KT P6SM SKC=



000
FTUS46 KLOX 211200 AAA
TAFVNY
TAF AMD
KVNY 211204Z 2112/2212 VRB03KT 2SM BR BKN001
     FM211500 VRB03KT P6SM SKC
     FM212000 15008KT P6SM SKC
     FM220300 VRB03KT P6SM SKC=



000
FTUS46 KLOX 211200 AAA
TAFVNY
TAF AMD
KVNY 211204Z 2112/2212 VRB03KT 2SM BR BKN001
     FM211500 VRB03KT P6SM SKC
     FM212000 15008KT P6SM SKC
     FM220300 VRB03KT P6SM SKC=



000
FTUS46 KLOX 211100
TAFSMX
TAF
KSMX 211125Z 2112/2212 32007KT P6SM SKC
     FM212000 31015G22KT P6SM SKC
     FM220300 31008KT P6SM SKC
     FM220700 VRB03KT P6SM SKC=



000
FTUS46 KLOX 211100
TAFLGB
TAF
KLGB 211125Z 2112/2212 VRB03KT P6SM OVC015
     FM211600 VRB03KT P6SM SKC
     FM211900 18007KT P6SM SKC
     FM220000 28008KT P6SM SKC
     FM220400 VRB03KT P6SM SKC
     FM221100 VRB03KT 5SM BR BKN007=



000
FTUS46 KLOX 211100
TAFPRB
TAF
KPRB 211125Z 2112/2212 VRB03KT P6SM SCT040
     FM211300 VRB03KT P6SM BKN030
     FM211600 VRB03KT P6SM SKC
     FM212000 34009KT P6SM SKC
     FM220000 08008KT P6SM SKC
     FM220500 VRB03KT P6SM SKC=



000
FTUS46 KLOX 211100
TAFSBA
TAF
KSBA 211125Z 2112/2212 VRB03KT P6SM SKC WS015/35030KT
     FM211400 VRB03KT P6SM SKC
     FM211700 15006KT P6SM SKC
     FM212200 24008KT P6SM SKC
     FM220100 VRB03KT P6SM SKC WS015/36025KT
     FM220900 VRB03KT P6SM SKC=



000
FTUS46 KLOX 211100
TAFVNY
TAF
KVNY 211125Z 2112/2212 VRB03KT P6SM SKC
     FM212000 15008KT P6SM SKC
     FM220300 VRB03KT P6SM SKC=



000
FTUS46 KLOX 211100
TAFSBP
TAF
KSBP 211125Z 2112/2212 31007KT P6SM SKC
     FM212000 31015G22KT P6SM SKC
     FM220300 31008KT P6SM SKC
     FM220700 VRB03KT P6SM SKC=



000
FTUS46 KLOX 211100
TAFLAX
TAF
KLAX 211125Z 2112/2218 VRB03KT P6SM BKN014
     FM211600 VRB03KT P6SM FEW020
     FM212000 26012KT P6SM SKC
     FM220400 26006KT P6SM SKC
     FM221000 VRB03KT 5SM BR BKN005
     FM221600 VRB03KT P6SM SKC=



000
FTUS46 KLOX 211100
TAFBUR
TAF
KBUR 211125Z 2112/2212 VRB03KT 4SM BR OVC004
     FM211500 VRB03KT P6SM SKC
     FM212000 18008KT P6SM SKC
     FM220300 VRB03KT P6SM SKC=



000
FTUS46 KLOX 211100
TAFWJF
TAF
KWJF 211125Z 2112/2212 28015G25KT P6SM SKC
     FM211400 28008KT P6SM SKC
     FM212100 27017G25KT P6SM SKC
     FM220300 26008KT P6SM SKC=



000
FTUS46 KLOX 211100
TAFPMD
TAF
KPMD 211125Z 2112/2212 28015KT P6SM SKC
     FM211400 28008KT P6SM SKC
     FM212100 27015G20KT P6SM SKC
     FM220300 26008KT P6SM SKC=



000
FTUS46 KLOX 211100
TAFPRB
TAF
KPRB 211125Z 2112/2212 VRB03KT P6SM SCT040
     FM211300 VRB03KT P6SM BKN030
     FM211600 VRB03KT P6SM SKC
     FM212000 34009KT P6SM SKC
     FM220000 08008KT P6SM SKC
     FM220500 VRB03KT P6SM SKC=



000
FTUS46 KLOX 211100
TAFWJF
TAF
KWJF 211125Z 2112/2212 28015G25KT P6SM SKC
     FM211400 28008KT P6SM SKC
     FM212100 27017G25KT P6SM SKC
     FM220300 26008KT P6SM SKC=



000
FTUS46 KLOX 211100
TAFBUR
TAF
KBUR 211125Z 2112/2212 VRB03KT 4SM BR OVC004
     FM211500 VRB03KT P6SM SKC
     FM212000 18008KT P6SM SKC
     FM220300 VRB03KT P6SM SKC=



000
FTUS46 KLOX 211100
TAFSBA
TAF
KSBA 211125Z 2112/2212 VRB03KT P6SM SKC WS015/35030KT
     FM211400 VRB03KT P6SM SKC
     FM211700 15006KT P6SM SKC
     FM212200 24008KT P6SM SKC
     FM220100 VRB03KT P6SM SKC WS015/36025KT
     FM220900 VRB03KT P6SM SKC=



000
FTUS46 KLOX 211100
TAFSMX
TAF
KSMX 211125Z 2112/2212 32007KT P6SM SKC
     FM212000 31015G22KT P6SM SKC
     FM220300 31008KT P6SM SKC
     FM220700 VRB03KT P6SM SKC=



000
FTUS46 KLOX 211100
TAFLGB
TAF
KLGB 211125Z 2112/2212 VRB03KT P6SM OVC015
     FM211600 VRB03KT P6SM SKC
     FM211900 18007KT P6SM SKC
     FM220000 28008KT P6SM SKC
     FM220400 VRB03KT P6SM SKC
     FM221100 VRB03KT 5SM BR BKN007=



000
FTUS46 KLOX 211100
TAFVNY
TAF
KVNY 211125Z 2112/2212 VRB03KT P6SM SKC
     FM212000 15008KT P6SM SKC
     FM220300 VRB03KT P6SM SKC=



000
FTUS46 KLOX 211100
TAFSBP
TAF
KSBP 211125Z 2112/2212 31007KT P6SM SKC
     FM212000 31015G22KT P6SM SKC
     FM220300 31008KT P6SM SKC
     FM220700 VRB03KT P6SM SKC=



000
FTUS46 KLOX 211100
TAFLAX
TAF
KLAX 211125Z 2112/2218 VRB03KT P6SM BKN014
     FM211600 VRB03KT P6SM FEW020
     FM212000 26012KT P6SM SKC
     FM220400 26006KT P6SM SKC
     FM221000 VRB03KT 5SM BR BKN005
     FM221600 VRB03KT P6SM SKC=



000
FTUS46 KLOX 211100
TAFPMD
TAF
KPMD 211125Z 2112/2212 28015KT P6SM SKC
     FM211400 28008KT P6SM SKC
     FM212100 27015G20KT P6SM SKC
     FM220300 26008KT P6SM SKC=



000
FTUS46 KLOX 211100 AAA
TAFBUR
TAF AMD
KBUR 211100Z 2111/2206 VRB03KT 5SM BR OVC005
     FM211600 VRB03KT P6SM SKC
     FM212000 18008KT P6SM SKC
     FM220300 VRB03KT P6SM SKC=



000
FTUS46 KLOX 211100 AAA
TAFBUR
TAF AMD
KBUR 211100Z 2111/2206 VRB03KT 5SM BR OVC005
     FM211600 VRB03KT P6SM SKC
     FM212000 18008KT P6SM SKC
     FM220300 VRB03KT P6SM SKC=



000
FTUS46 KLOX 211000 AAA
TAFWJF
TAF AMD
KWJF 211025Z 2110/2206 28015G25KT P6SM SKC
     FM211400 28010KT P6SM SKC
     FM212100 27017G25KT P6SM SKC
     FM220300 26008KT P6SM SKC=



000
FTUS46 KLOX 211000 AAA
TAFWJF
TAF AMD
KWJF 211025Z 2110/2206 28015G25KT P6SM SKC
     FM211400 28010KT P6SM SKC
     FM212100 27017G25KT P6SM SKC
     FM220300 26008KT P6SM SKC=



000
FTUS46 KLOX 210900 AAA
TAFPMD
TAF AMD
KPMD 210905Z 2109/2206 28018G28KT P6SM SKC
     FM211300 28010KT P6SM SKC
     FM212100 27015G20KT P6SM SKC
     FM220300 26008KT P6SM SKC=



000
FTUS46 KLOX 210900 AAB
TAFLAX
TAF AMD
KLAX 210903Z 2109/2212 VRB03KT P6SM BKN011
     FM211600 VRB03KT P6SM FEW020
     FM212000 26012KT P6SM SKC
     FM220400 26006KT P6SM SKC
     FM221000 VRB03KT 5SM HZ SKC=



000
FTUS46 KLOX 210900 AAA
TAFSMX
TAF AMD
KSMX 210903Z 2109/2206 31006KT P6SM SKC
     FM212000 31015G22KT P6SM SKC
     FM220300 31008KT P6SM SKC=



000
FTUS46 KLOX 210700 AAA
TAFSBP
TAF AMD
KSBP 210743Z 2108/2206 31010KT P6SM SKC
     FM211200 VRB03KT P6SM SKC
     FM211700 31008KT P6SM SKC
     FM212000 31015G22KT P6SM SKC
     FM220300 31008KT P6SM SKC=



000
FTUS46 KLOX 210700 AAA
TAFLAX
TAF AMD
KLAX 210742Z 2108/2212 VRB03KT P6SM BKN011
     FM211600 VRB03KT P6SM FEW020
     FM212000 26012KT P6SM SKC
     FM220400 26006KT P6SM SKC
     FM221000 VRB03KT 5SM HZ SKC=



000
FTUS46 KLOX 210600 AAA
TAFLGB
TAF AMD
KLGB 210657Z 2107/2206 VRB03KT P6SM BKN015
     FM211600 VRB03KT P6SM SKC
     FM211900 18007KT P6SM SKC
     FM220000 28008KT P6SM SKC
     FM220400 VRB03KT P6SM SKC=



000
FTUS46 KLOX 210500
TAFPMD
TAF
KPMD 210528Z 2106/2206 26007KT P6SM SKC
     FM212100 27015G20KT P6SM SKC
     FM220300 26008KT P6SM SKC=



000
FTUS46 KLOX 210500
TAFSBP
TAF
KSBP 210528Z 2106/2206 VRB03KT P6SM SKC
     FM211700 31008KT P6SM SKC
     FM212000 31015G22KT P6SM SKC
     FM220300 31008KT P6SM SKC=



000
FTUS46 KLOX 210500
TAFSBA
TAF
KSBA 210528Z 2106/2206 VRB03KT P6SM SKC WS015/35030KT
     FM211300 VRB03KT P6SM SKC
     FM211700 15006KT P6SM SKC
     FM212200 24008KT P6SM SKC
     FM220100 VRB03KT P6SM SKC WS015/36025KT=



000
FTUS46 KLOX 210500
TAFVNY
TAF
KVNY 210528Z 2106/2206 VRB03KT P6SM SKC
     FM212000 15008KT P6SM SKC
     FM220300 VRB03KT P6SM SKC=



000
FTUS46 KLOX 210500
TAFBUR
TAF
KBUR 210528Z 2106/2206 VRB03KT P6SM SKC
     FM212000 18008KT P6SM SKC
     FM220300 VRB03KT P6SM SKC=



000
FTUS46 KLOX 210500
TAFWJF
TAF
KWJF 210528Z 2106/2206 26008KT P6SM SKC
     FM212100 27017G25KT P6SM SKC
     FM220300 26008KT P6SM SKC=



000
FTUS46 KLOX 210500
TAFSMX
TAF
KSMX 210528Z 2106/2206 VRB03KT P6SM SKC
     FM210900 VRB03KT P6SM BKN012
     FM211600 31008KT P6SM SKC
     FM212000 31015G22KT P6SM SKC
     FM220300 31008KT P6SM SKC=



000
FTUS46 KLOX 210500
TAFPRB
TAF
KPRB 210528Z 2106/2206 31010KT P6SM SCT150
     FM211200 VRB03KT P6SM BKN040
     FM211600 VRB03KT P6SM SKC
     FM212000 34009KT P6SM SKC
     FM220000 08008KT P6SM SKC
     FM220500 VRB03KT P6SM SKC=



000
FTUS46 KLOX 210500
TAFLGB
TAF
KLGB 210528Z 2106/2206 VRB03KT P6SM SKC
     FM211200 VRB03KT P6SM BKN015
     FM211600 VRB03KT P6SM SKC
     FM211900 18007KT P6SM SKC
     FM220000 28008KT P6SM SKC
     FM220400 VRB03KT P6SM SKC=



000
FTUS46 KLOX 210500
TAFLAX
TAF
KLAX 210528Z 2106/2212 VRB03KT P6SM SKC
     FM211200 VRB03KT P6SM BKN015
     FM211600 VRB03KT P6SM FEW020
     FM212000 26012KT P6SM SKC
     FM220400 26006KT P6SM SKC
     FM221000 VRB03KT 5SM HZ SKC=



000
FTUS46 KLOX 210200 AAA
TAFLAX
TAF AMD
KLAX 210258Z 2103/2206 26008KT P6SM FEW025 SCT250
     FM210800 VRB03KT P6SM BKN015
     FM211600 VRB03KT P6SM SCT020
     FM212000 26012KT P6SM SKC
     FM220400 26006KT P6SM SKC=



000
FTUS46 KLOX 210200 AAA
TAFSBA
TAF AMD
KSBA 210229Z 2102/2124 VRB03KT P6SM FEW025 SCT150 WS015/33025KT
     FM211200 VRB03KT P6SM SCT150
     FM211700 15006KT P6SM SKC
     FM212200 24008KT P6SM SKC=



000
FTUS46 KLOX 210200 AAA
TAFSMX
TAF AMD
KSMX 210200Z 2102/2124 30010KT P6SM BKN020
     FM210500 VRB03KT P6SM SCT025 SCT150
     FM211200 35008KT P6SM SKC
     FM211600 02012G18KT P6SM SKC
     FM212000 32017G25KT P6SM SKC=



000
FTUS46 KLOX 210200 AAA
TAFSBP
TAF AMD
KSBP 210200Z 2102/2124 31008KT P6SM BKN020
     FM210500 VRB03KT P6SM SCT025 SCT150
     FM211200 31008KT P6SM SKC
     FM211600 36012KT P6SM SKC
     FM212000 32015G22KT P6SM SKC=



000
FTUS46 KLOX 210200 AAA
TAFSMX
TAF AMD
KSMX 210200Z 2102/2124 30010KT P6SM BKN020
     FM210500 VRB03KT P6SM SCT025 SCT150
     FM211200 35008KT P6SM SKC
     FM211600 02012G18KT P6SM SKC
     FM212000 32017G25KT P6SM SKC=



000
FTUS46 KLOX 210200 AAA
TAFSBP
TAF AMD
KSBP 210200Z 2102/2124 31008KT P6SM BKN020
     FM210500 VRB03KT P6SM SCT025 SCT150
     FM211200 31008KT P6SM SKC
     FM211600 36012KT P6SM SKC
     FM212000 32015G22KT P6SM SKC=



000
FTUS46 KLOX 202300
TAFPMD
TAF
KPMD 202331Z 2100/2124 26015G22KT P6SM SCT250
     FM210400 27009KT P6SM SCT150
     FM212000 29014G20KT P6SM SKC=



000
FTUS46 KLOX 202300
TAFSBP
TAF
KSBP 202331Z 2100/2124 31015G20KT P6SM FEW020 SCT150
     FM210200 31007KT P6SM SCT025 SCT150
     FM210500 VRB03KT P6SM SCT025 SCT150
     FM211200 31008KT P6SM SKC
     FM211600 36012KT P6SM SKC
     FM212000 32015G22KT P6SM SKC=



000
FTUS46 KLOX 202300
TAFPRB
TAF
KPRB 202331Z 2100/2124 31010KT P6SM SCT150
     FM210800 VRB03KT P6SM SCT025 SCT150
     FM211600 VRB03KT P6SM SKC
     FM212000 01009KT P6SM SKC=



000
FTUS46 KLOX 202300
TAFLAX
TAF
KLAX 202331Z 2100/2206 26012KT P6SM FEW025 SCT250
     FM210400 25006KT P6SM SKC
     FM210800 VRB03KT P6SM BKN015
     FM211600 VRB03KT P6SM SCT020
     FM212000 26012KT P6SM SKC
     FM220400 26006KT P6SM SKC=



000
FTUS46 KLOX 202300
TAFBUR
TAF
KBUR 202331Z 2100/2124 18009KT P6SM SCT250
     FM210300 VRB03KT P6SM SKC
     FM212000 18008KT P6SM SKC=



000
FTUS46 KLOX 202300
TAFWJF
TAF
KWJF 202331Z 2100/2124 25015G22KT P6SM SCT250
     FM210400 27012KT P6SM SCT150
     FM212000 27015G22KT P6SM SKC=



000
FTUS46 KLOX 202300
TAFVNY
TAF
KVNY 202331Z 2100/2124 16007KT P6SM SCT250
     FM210300 VRB03KT P6SM SKC
     FM212000 15008KT P6SM SKC=



000
FTUS46 KLOX 202300
TAFSMX
TAF
KSMX 202331Z 2100/2124 30015G20KT P6SM FEW025 SCT150
     FM210200 30007KT P6SM SCT025 SCT150
     FM210500 VRB03KT P6SM SCT025 SCT150
     FM211200 35008KT P6SM SKC
     FM211600 02012G18KT P6SM SKC
     FM212000 32017G25KT P6SM SKC=



000
FTUS46 KLOX 202300
TAFSBA
TAF
KSBA 202331Z 2100/2124 25008KT P6SM FEW025 SCT150
     FM210300 VRB03KT P6SM SCT150
     FM211700 15006KT P6SM SKC
     FM212200 24008KT P6SM SKC=



000
FTUS46 KLOX 202300
TAFLGB
TAF
KLGB 202331Z 2100/2124 29007KT P6SM SCT250
     FM210300 VRB03KT P6SM SKC
     FM210900 VRB03KT P6SM BKN015
     FM211600 VRB03KT P6SM SCT020
     FM211900 18007KT P6SM SKC=



000
FTUS46 KLOX 202000 AAA
TAFLAX
TAF AMD
KLAX 202051Z 2021/2124 24006KT P6SM FEW025 SCT180
     FM202200 25012KT P6SM SKC
     FM210400 25006KT P6SM SKC
     FM210800 VRB03KT P6SM BKN015
     FM211600 VRB03KT P6SM SCT020
     FM212000 26012KT P6SM SKC=



000
FTUS46 KLOX 201800 AAA
TAFVNY
TAF AMD
KVNY 201825Z 2018/2118 16005KT P6SM BKN015
     FM201900 16007KT P6SM SCT020 SCT150
     FM210300 VRB03KT P6SM SKC=



000
FTUS46 KLOX 201800 AAA
TAFBUR
TAF AMD
KBUR 201824Z 2018/2118 11003KT 4SM HZ OVC013
     FM201900 17003KT P6SM SCT010
     FM202000 18009KT P6SM SCT150
     FM210300 VRB03KT P6SM SKC=



000
FTUS46 KLOX 201800 AAA
TAFPRB
TAF AMD
KPRB 201822Z 2018/2118 00000KT P6SM OVC006
     FM201900 VRB03KT P6SM SCT006
     FM202000 32008KT P6SM SCT150
     FM210400 VRB03KT P6SM SCT030 SCT150
     FM211000 VRB03KT P6SM SKC=



000
FTUS46 KLOX 201700 RRA
TAFLAX
TAF
KLAX 201745Z 2018/2124 VRB03KT P6SM OVC021
     FM201900 25006KT P6SM SCT022 SCT150
     FM202100 25012KT P6SM SCT025 SCT150
     FM210400 25006KT P6SM SKC
     FM210800 VRB03KT P6SM BKN015
     FM211600 VRB03KT P6SM SCT020
     FM212000 26012KT P6SM SKC=



000
FTUS46 KLOX 201700 RRA
TAFVNY
TAF
KVNY 201745Z 2018/2118 12005KT 6SM HZ BKN011
     FM201815 12005KT P6SM SCT011
     FM201900 16007KT P6SM SCT150
     FM210300 VRB03KT P6SM SKC=



000
FTUS46 KLOX 201700 RRA
TAFSBP
TAF
KSBP 201745Z 2018/2118 32008KT P6SM FEW020 SCT200
     FM201900 30012KT P6SM SCT025 BKN150
     FM202200 31015G20KT P6SM SCT150
     FM210200 VRB03KT P6SM SCT030 SCT150
     FM210500 VRB03KT P6SM SKC=



000
FTUS46 KLOX 201700 RRA
TAFPRB
TAF
KPRB 201745Z 2018/2118 00000KT 6SM BR OVC005
     FM201815 VRB03KT P6SM SCT006
     FM202000 32008KT P6SM SCT150
     FM210400 VRB03KT P6SM SCT030 SCT150
     FM211000 VRB03KT P6SM SKC=



000
FTUS46 KLOX 201700 RRA
TAFLGB
TAF
KLGB 201745Z 2018/2118 VRB03KT P6SM OVC018
     FM201900 19007KT P6SM SCT022 BKN150
     FM210300 VRB03KT P6SM SKC
     FM210900 VRB03KT P6SM BKN015
     FM211600 VRB03KT P6SM SCT020=



000
FTUS46 KLOX 201700 RRA
TAFPMD
TAF
KPMD 201745Z 2018/2118 01005KT P6SM SKC
     FM202000 25012KT P6SM SCT150
     FM202200 26015G22KT P6SM SKC
     FM210400 26008KT P6SM SCT150=



000
FTUS46 KLOX 201700 RRA
TAFBUR
TAF
KBUR 201745Z 2018/2118 17003KT 4SM HZ OVC007
     FM201830 17003KT P6SM SCT010
     FM201900 18009KT P6SM SCT150
     FM210300 VRB03KT P6SM SKC=



000
FTUS46 KLOX 201700 RRA
TAFSMX
TAF
KSMX 201745Z 2018/2118 08003KT P6SM OVC018
     FM201830 30012KT P6SM SCT025 SCT150
     FM202200 31015G20KT P6SM SCT150
     FM210400 VRB03KT P6SM SKC=



000
FTUS46 KLOX 201700 RRA
TAFSBA
TAF
KSBA 201745Z 2018/2118 24003KT P6SM FEW020 SCT030
     FM202000 24008KT P6SM SCT020 SCT150
     FM210300 VRB03KT P6SM SCT150=



000
FTUS46 KLOX 201700 RRA
TAFWJF
TAF
KWJF 201745Z 2018/2118 00000KT P6SM SKC
     FM202000 25012KT P6SM SCT150
     FM202200 25015G22KT P6SM BKN150
     FM210500 26008KT P6SM SCT150=



000
FTUS46 KLOX 201600 AAA
TAFLAX
TAF AMD
KLAX 201626Z 2016/2118 11004KT P6SM SCT015 OVC017
     FM201700 VRB03KT P6SM BKN020
     FM202000 25012KT P6SM SCT022 BKN150
     FM210400 25006KT P6SM BKN015
     FM210800 VRB05KT P6SM OVC015
     FM211100 VRB05KT 5SM BR OVC010
     FM211700 VRB05KT P6SM SCT020=



000
FTUS46 KLOX 201400 AAA
TAFSBP
TAF AMD
KSBP 201451Z 2015/2112 00000KT P6SM OVC015
     FM201700 VRB03KT P6SM OVC020
     FM202000 30012KT P6SM SCT025 BKN150
     FM210200 VRB05KT P6SM SCT030 SCT150
     FM210500 VRB03KT P6SM BKN015
     FM210700 VRB05KT P6SM OVC008=



000
FTUS46 KLOX 201400 AAA
TAFSBA
TAF AMD
KSBA 201451Z 2015/2112 07003KT P6SM FEW020
     FM201700 15007KT P6SM BKN018 BKN150
     FM202000 24008KT P6SM SCT020 BKN150
     FM210300 VRB05KT P6SM SCT030 SCT150
     FM211100 VRB05KT 6SM BR SCT015=



000
FTUS46 KLOX 201300 AAA
TAFVNY
TAF AMD
KVNY 201304Z 2013/2112 VRB05KT 4SM BR OVC005
     FM201700 VRB03KT P6SM BKN015
     FM201900 16007KT P6SM SCT020 BKN150
     FM202300 VRB05KT P6SM SCT030 SCT150
     FM210500 VRB05KT 6SM BR BKN015
     FM211000 VRB03KT 4SM BR OVC010=



000
FTUS46 KLOX 201300 AAB
TAFBUR
TAF AMD
KBUR 201304Z 2013/2112 VRB05KT 2SM BR OVC005
      TEMPO 2014/2015 VRB05KT 1SM BR OVC002
     FM201600 VRB03KT P6SM BKN010
     FM201800 18009KT P6SM SCT020 BKN150
     FM202300 VRB05KT P6SM SCT030 SCT150
     FM210500 VRB05KT 6SM BR BKN015
     FM211000 VRB03KT 4SM BR OVC010=



000
FTUS46 KLOX 201100 AAA
TAFBUR
TAF AMD
KBUR 201149Z 2012/2112 VRB05KT 2SM BR OVC004
      TEMPO 2014/2015 VRB05KT 1SM BR OVC002
     FM201600 VRB03KT P6SM BKN010
     FM201800 18009KT P6SM SCT020 BKN150
     FM202300 VRB05KT P6SM SCT030 SCT150
     FM210500 VRB05KT 6SM BR BKN015
     FM211000 VRB03KT 4SM BR OVC010=



000
FTUS46 KLOX 201100
TAFSBA
TAF
KSBA 201137Z 2012/2112 VRB05KT P6SM SKC
     FM201400 VRB03KT P6SM BKN012
     FM201700 15007KT P6SM BKN018 BKN150
     FM202000 24008KT P6SM SCT020 BKN150
     FM210300 VRB05KT P6SM SCT030 SCT150
     FM211100 VRB05KT 6SM BR SCT015=



000
FTUS46 KLOX 201100
TAFPRB
TAF
KPRB 201135Z 2012/2112 VRB05KT P6SM OVC004
     FM201700 28010KT P6SM SCT025 BKN150
     FM210400 VRB05KT P6SM SCT030 SCT150
     FM211000 VRB03KT P6SM OVC004=



000
FTUS46 KLOX 201100
TAFSMX
TAF
KSMX 201135Z 2012/2112 VRB05KT P6SM OVC012
     FM201700 VRB03KT P6SM OVC015
     FM202000 30012KT P6SM BKN025
     FM210400 VRB05KT P6SM OVC020
     FM210600 VRB05KT 6SM BR OVC008=



000
FTUS46 KLOX 201100
TAFSBP
TAF
KSBP 201135Z 2012/2112 VRB05KT P6SM OVC011
     FM201400 VRB03KT P6SM OVC008
     FM201700 VRB03KT P6SM OVC020
     FM202000 30012KT P6SM SCT025 BKN150
     FM210200 VRB05KT P6SM SCT030 SCT150
     FM210500 VRB03KT P6SM BKN015
     FM210700 VRB05KT P6SM OVC008=



000
FTUS46 KLOX 201100
TAFWJF
TAF
KWJF 201132Z 2012/2112 VRB03KT P6SM SCT200
     FM202100 25014KT P6SM BKN150
     FM210500 VRB05KT P6SM SCT150=



000
FTUS46 KLOX 201100
TAFPMD
TAF
KPMD 201132Z 2012/2112 VRB05KT P6SM SCT200
     FM202100 25012KT P6SM BKN150
     FM210400 VRB05KT P6SM SCT150=



000
FTUS46 KLOX 201100
TAFVNY
TAF
KVNY 201132Z 2012/2112 VRB05KT 3SM BR OVC004
     FM201700 VRB03KT P6SM BKN015
     FM201900 16007KT P6SM SCT020 BKN150
     FM202300 VRB05KT P6SM SCT030 SCT150
     FM210500 VRB05KT 6SM BR BKN015
     FM211000 VRB03KT 4SM BR OVC010=



000
FTUS46 KLOX 201100
TAFLGB
TAF
KLGB 201132Z 2012/2112 VRB05KT P6SM SCT015
      TEMPO 2012/2014 BKN015
     FM201400 VRB03KT P6SM OVC015
     FM201700 VRB03KT P6SM BKN020
     FM202000 21007KT P6SM SCT022 BKN150
     FM210300 VRB05KT P6SM BKN020
     FM210700 VRB05KT 5SM BR OVC010=



000
FTUS46 KLOX 201100
TAFBUR
TAF
KBUR 201132Z 2012/2112 VRB05KT P6SM SCT007
      TEMPO 2013/2015 OVC009
     FM201700 VRB03KT P6SM BKN015
     FM201900 18009KT P6SM SCT020 BKN150
     FM202300 VRB05KT P6SM SCT030 SCT150
     FM210500 VRB05KT 6SM BR BKN015
     FM211000 VRB03KT 4SM BR OVC010=



000
FTUS46 KLOX 201100
TAFLAX
TAF
KLAX 201132Z 2012/2118 VRB05KT P6SM BKN015
     FM201400 VRB03KT P6SM OVC013
     FM201700 VRB03KT P6SM BKN020
     FM202000 25012KT P6SM SCT022 BKN150
     FM210400 25006KT P6SM BKN015
     FM210800 VRB05KT P6SM OVC015
     FM211100 VRB05KT 5SM BR OVC010
     FM211700 VRB05KT P6SM SCT020=



000
FTUS46 KLOX 201100 AAA
TAFVNY
TAF AMD
KVNY 201126Z 2011/2106 VRB05KT 3SM BR OVC004
     FM201700 VRB03KT P6SM BKN015
     FM201900 16007KT P6SM SCT020 BKN150
     FM202300 VRB05KT P6SM SCT030 SCT150=



000
FTUS46 KLOX 201100 AAA
TAFPRB
TAF AMD
KPRB 201125Z 2011/2106 VRB05KT P6SM OVC004
     FM201700 28010KT P6SM SCT025 BKN150
     FM210400 VRB05KT P6SM SCT030 SCT150=



000
FTUS46 KLOX 201100 AAC
TAFPRB
TAF AMD
KPRB 201103Z 2011/2106 VRB05KT P6SM OVC005
     FM201700 28010KT P6SM SCT025 BKN150
     FM210400 VRB05KT P6SM SCT030 SCT150=



000
FTUS46 KLOX 201100 AAF
TAFSMX
TAF AMD
KSMX 201103Z 2011/2106 VRB05KT P6SM OVC012
     FM201700 VRB03KT P6SM OVC015
     FM202000 30012KT P6SM BKN025
     FM210400 VRB05KT P6SM OVC020=



000
FTUS46 KLOX 201100 AAB
TAFVNY
TAF AMD
KVNY 201102Z 2011/2106 VRB05KT 4SM BR OVC005
     FM201700 VRB03KT P6SM BKN015
     FM201900 16007KT P6SM SCT020 BKN150
     FM202300 VRB05KT P6SM SCT030 SCT150=



000
FTUS46 KLOX 201100 AAA
TAFSBA
TAF AMD
KSBA 201102Z 2011/2106 VRB05KT P6SM SKC
     FM201400 VRB03KT P6SM BKN012
     FM201700 15007KT P6SM BKN018 BKN150
     FM202000 24008KT P6SM SCT020 BKN150
     FM210300 VRB05KT P6SM SCT030 SCT150=



000
FTUS46 KLOX 201100 AAD
TAFBUR
TAF AMD
KBUR 201101Z 2011/2106 VRB05KT P6SM SCT007
      TEMPO 2013/2015 OVC009
     FM201700 VRB03KT P6SM BKN015
     FM201900 18009KT P6SM SCT020 BKN150
     FM202300 VRB05KT P6SM SCT030 SCT150=



000
FTUS46 KLOX 201000 AAC
TAFLAX
TAF AMD
KLAX 201051Z 2011/2112 VRB05KT P6SM BKN015
     FM201400 VRB03KT P6SM OVC013
     FM201700 VRB03KT P6SM BKN020
     FM202000 25012KT P6SM SCT022 BKN150
     FM210400 25006KT P6SM BKN015
     FM210800 VRB05KT P6SM OVC015=



000
FTUS46 KLOX 201000 AAB
TAFPRB
TAF AMD
KPRB 201047Z 2011/2106 VRB05KT P6SM BKN008
     FM201200 VRB03KT P6SM OVC008
     FM201900 28010KT P6SM SCT025 BKN150
     FM210400 VRB05KT P6SM SCT030 SCT150=



000
FTUS46 KLOX 201000 AAE
TAFSBP
TAF AMD
KSBP 201001Z 2010/2106 VRB05KT P6SM OVC011
     FM201200 VRB03KT P6SM OVC008
     FM201700 VRB03KT P6SM OVC020
     FM202000 30012KT P6SM SCT025 BKN150
     FM210200 VRB05KT P6SM SCT030 SCT150
     FM210500 VRB03KT P6SM BKN030=



000
FTUS46 KLOX 201000 AAE
TAFSBP
TAF AMD
KSBP 201001Z 2010/2106 VRB05KT P6SM OVC011
     FM201200 VRB03KT P6SM OVC008
     FM201700 VRB03KT P6SM OVC020
     FM202000 30012KT P6SM SCT025 BKN150
     FM210200 VRB05KT P6SM SCT030 SCT150
     FM210500 VRB03KT P6SM BKN030=



000
FTUS46 KLOX 200900 AAF
TAFLGB
TAF AMD
KLGB 200947Z 2010/2106 VRB05KT P6SM SCT015
      TEMPO 2010/2012 BKN015
     FM201200 VRB03KT P6SM OVC015
     FM201700 VRB03KT P6SM BKN020
     FM202000 21007KT P6SM SCT022 BKN150
     FM210300 VRB05KT P6SM BKN020=



000
FTUS46 KLOX 200900 AAF
TAFLGB
TAF AMD
KLGB 200947Z 2010/2106 VRB05KT P6SM SCT015
      TEMPO 2010/2012 BKN015
     FM201200 VRB03KT P6SM OVC015
     FM201700 VRB03KT P6SM BKN020
     FM202000 21007KT P6SM SCT022 BKN150
     FM210300 VRB05KT P6SM BKN020=



000
FTUS46 KLOX 200900 AAD
TAFSBP
TAF AMD
KSBP 200906Z 2009/2106 VRB05KT P6SM OVC011
     FM201000 VRB03KT P6SM OVC008
     FM201700 VRB03KT P6SM OVC020
     FM202000 30012KT P6SM SCT025 BKN150
     FM210200 VRB05KT P6SM SCT030 SCT150
     FM210500 VRB03KT P6SM BKN030=



000
FTUS46 KLOX 200900 AAC
TAFBUR
TAF AMD
KBUR 200905Z 2009/2106 VRB05KT 5SM BR SCT007
      TEMPO 2011/2015 OVC009
     FM201700 VRB03KT P6SM BKN015
     FM201900 18009KT P6SM SCT020 BKN150
     FM202300 VRB05KT P6SM SCT030 SCT150=



000
FTUS46 KLOX 200900 AAE
TAFSMX
TAF AMD
KSMX 200905Z 2009/2106 VRB05KT 6SM BR SCT004 OVC008
     FM201700 VRB03KT P6SM OVC015
     FM202000 30012KT P6SM BKN025
     FM210400 VRB05KT P6SM OVC020=



000
FTUS46 KLOX 200900 AAB
TAFLAX
TAF AMD
KLAX 200903Z 2009/2112 26007KT P6SM SCT015
     FM201400 VRB03KT P6SM OVC013
     FM201700 VRB03KT P6SM BKN020
     FM202000 25012KT P6SM SCT022 BKN150
     FM210400 25006KT P6SM BKN015
     FM210800 VRB05KT P6SM OVC015=



000
FTUS46 KLOX 200700 AAA
TAFLAX
TAF AMD
KLAX 200738Z 2008/2112 26007KT P6SM SCT015
      TEMPO 2008/2010 BKN015
     FM201000 VRB03KT P6SM OVC013
     FM201700 VRB03KT P6SM BKN020
     FM202000 25012KT P6SM SCT022 BKN150
     FM210400 25006KT P6SM BKN015
     FM210800 VRB05KT P6SM OVC015=



000
FTUS46 KLOX 200700 AAA
TAFLAX
TAF AMD
KLAX 200738Z 2008/2112 26007KT P6SM SCT015
      TEMPO 2008/2010 BKN015
     FM201000 VRB03KT P6SM OVC013
     FM201700 VRB03KT P6SM BKN020
     FM202000 25012KT P6SM SCT022 BKN150
     FM210400 25006KT P6SM BKN015
     FM210800 VRB05KT P6SM OVC015=



000
FTUS46 KLOX 200700 AAA
TAFVNY
TAF AMD
KVNY 200737Z 2008/2106 VRB05KT 6SM BR BKN006
     FM201000 VRB05KT 5SM BR OVC006
     FM201700 VRB03KT P6SM BKN015
     FM201900 16007KT P6SM SCT020 BKN150
     FM202300 VRB05KT P6SM SCT030 SCT150=



000
FTUS46 KLOX 200700 AAA
TAFVNY
TAF AMD
KVNY 200737Z 2008/2106 VRB05KT 6SM BR BKN006
     FM201000 VRB05KT 5SM BR OVC006
     FM201700 VRB03KT P6SM BKN015
     FM201900 16007KT P6SM SCT020 BKN150
     FM202300 VRB05KT P6SM SCT030 SCT150=



000
FTUS46 KLOX 200700 AAB
TAFBUR
TAF AMD
KBUR 200736Z 2008/2106 VRB05KT 5SM BR OVC009
     FM201700 VRB03KT P6SM BKN015
     FM201900 18009KT P6SM SCT020 BKN150
     FM202300 VRB05KT P6SM SCT030 SCT150=



000
FTUS46 KLOX 200700 AAB
TAFBUR
TAF AMD
KBUR 200736Z 2008/2106 VRB05KT 5SM BR OVC009
     FM201700 VRB03KT P6SM BKN015
     FM201900 18009KT P6SM SCT020 BKN150
     FM202300 VRB05KT P6SM SCT030 SCT150=



000
FTUS46 KLOX 200600 AAA
TAFBUR
TAF AMD
KBUR 200657Z 2007/2106 VRB05KT 5SM BR SCT009
     FM200800 VRB03KT 5SM BR BKN009
     FM201700 VRB03KT P6SM BKN015
     FM201900 18009KT P6SM SCT020 BKN150
     FM202300 VRB05KT P6SM SCT030 SCT150=



000
FTUS46 KLOX 200600 AAE
TAFLGB
TAF AMD
KLGB 200651Z 2007/2106 VRB05KT P6SM SCT015
      TEMPO 2007/2009 BKN015
     FM200900 VRB03KT P6SM OVC015
     FM201700 VRB03KT P6SM BKN020
     FM202000 21007KT P6SM SCT022 BKN150
     FM210300 VRB05KT P6SM BKN020=



000
FTUS46 KLOX 200600 AAD
TAFSMX
TAF AMD
KSMX 200650Z 2007/2106 VRB05KT P6SM SCT004 BKN009
     FM200900 VRB03KT 4SM -DZ OVC004
     FM201700 VRB03KT P6SM OVC015
     FM202000 30012KT P6SM BKN025
     FM210400 VRB05KT P6SM OVC020=



000
FTUS46 KLOX 200600 AAD
TAFLGB
TAF AMD
KLGB 200649Z 2007/2106 VRB05KT P6SM BKN015
     FM200800 VRB03KT P6SM OVC015
     FM201700 VRB03KT P6SM BKN020
     FM202000 21007KT P6SM SCT022 BKN150
     FM210300 VRB05KT P6SM BKN020=



000
FTUS46 KLOX 200600 AAC
TAFSBP
TAF AMD
KSBP 200649Z 2007/2106 VRB05KT P6SM SCT011
      TEMPO 2007/2010 OVC011
     FM201000 VRB03KT 6SM -DZ OVC008
     FM201700 VRB03KT P6SM OVC020
     FM202000 30012KT P6SM SCT025 BKN150
     FM210200 VRB05KT P6SM SCT030 SCT150
     FM210500 VRB03KT P6SM BKN030=



000
FTUS46 KLOX 200500 AAC
TAFSMX
TAF AMD
KSMX 200554Z 2006/2106 VRB05KT 5SM BR SCT004 BKN012
     FM200900 VRB03KT 4SM -DZ OVC004
     FM201700 VRB03KT P6SM OVC015
     FM202000 30012KT P6SM BKN025
     FM210400 VRB05KT P6SM OVC020=



000
FTUS46 KLOX 200500 AAC
TAFLGB
TAF AMD
KLGB 200550Z 2006/2106 VRB05KT P6SM SCT015
     FM200800 VRB03KT P6SM OVC015
     FM201700 VRB03KT P6SM BKN020
     FM202000 21007KT P6SM SCT022 BKN150
     FM210300 VRB05KT P6SM BKN020=



000
FTUS46 KLOX 200500 AAA
TAFPMD
TAF AMD
KPMD 200549Z 2006/2106 VRB05KT P6SM SCT200
     FM202100 25012KT P6SM BKN150
     FM210400 VRB05KT P6SM SCT150=



000
FTUS46 KLOX 200500 AAB
TAFSMX
TAF AMD
KSMX 200549Z 2006/2106 VRB05KT 6SM BR SCT004
     FM200900 VRB03KT 4SM -DZ OVC004
     FM201700 VRB03KT P6SM OVC015
     FM202000 30012KT P6SM BKN025
     FM210400 VRB05KT P6SM OVC020=



000
FTUS46 KLOX 200500 AAB
TAFSBP
TAF AMD
KSBP 200549Z 2006/2106 VRB05KT P6SM OVC011
     FM201000 VRB03KT 6SM -DZ OVC008
     FM201700 VRB03KT P6SM OVC020
     FM202000 30012KT P6SM SCT025 BKN150
     FM210200 VRB05KT P6SM SCT030 SCT150
     FM210500 VRB03KT P6SM BKN030=



000
FTUS46 KLOX 200500 AAA
TAFWJF
TAF AMD
KWJF 200549Z 2006/2106 25006KT P6SM SKC
     FM200800 VRB03KT P6SM SCT200
     FM202100 25014KT P6SM BKN150
     FM210500 VRB05KT P6SM SCT150=



000
FTUS46 KLOX 200500 AAA
TAFLGB
TAF AMD
KLGB 200549Z 2006/2106 VRB05KT P6SM OVC015
     FM201700 VRB03KT P6SM BKN020
     FM202000 21007KT P6SM SCT022 BKN150
     FM210300 VRB05KT P6SM BKN020=



000
FTUS46 KLOX 200500 AAA
TAFPRB
TAF AMD
KPRB 200549Z 2006/2106 VRB05KT P6SM SKC
     FM201300 VRB03KT P6SM OVC015
     FM201900 28010KT P6SM SCT025 BKN150
     FM210400 VRB05KT P6SM SCT030 SCT150=



000
FTUS46 KLOX 200500 AAB
TAFLGB
TAF AMD
KLGB 200549Z 2006/2106 VRB05KT P6SM SCT015
     FM200800 VRB03KT P6SM OVC015
     FM201700 VRB03KT P6SM BKN020
     FM202000 21007KT P6SM SCT022 BKN150
     FM210300 VRB05KT P6SM BKN020=



000
FTUS46 KLOX 200500 AAA
TAFSBP
TAF AMD
KSBP 200540Z 2006/2106 31007KT P6SM OVC015
     FM201000 VRB03KT 6SM -DZ OVC015
     FM201700 VRB03KT P6SM OVC020
     FM202000 30012KT P6SM SCT025 BKN150
     FM210200 VRB05KT P6SM SCT030 SCT150
     FM210500 VRB03KT P6SM BKN030=



000
FTUS46 KLOX 200500
TAFSBP
TAF
KSBP 200538Z 2006/2106 30012KT P6SM SKC
     FM200800 30007KT P6SM OVC015
     FM201000 VRB03KT 6SM -DZ OVC015
     FM201700 VRB03KT P6SM OVC020
     FM202000 30012KT P6SM SCT025 BKN150
     FM210200 VRB05KT P6SM SCT030 SCT150
     FM210500 VRB03KT P6SM BKN030=



000
FTUS46 KLOX 200500
TAFPRB
TAF
KPRB 200538Z 2006/2106 20008KT P6SM SKC
     FM200800 VRB03KT P6SM SKC
     FM201300 VRB03KT P6SM OVC015
     FM201900 28010KT P6SM SCT025 BKN150
     FM210400 VRB05KT P6SM SCT030 SCT150=



000
FTUS46 KLOX 200500
TAFSBA
TAF
KSBA 200538Z 2006/2106 VRB05KT P6SM SKC
     FM201100 VRB03KT P6SM BKN012
     FM201700 15007KT P6SM BKN018 BKN150
     FM202000 24008KT P6SM SCT020 BKN150
     FM210300 VRB05KT P6SM SCT030 SCT150=



000
FTUS46 KLOX 200500
TAFBUR
TAF
KBUR 200534Z 2006/2106 VRB05KT P6SM SKC
     FM200900 VRB03KT 6SM BR BKN010
     FM201700 VRB03KT P6SM BKN015
     FM201900 18009KT P6SM SCT020 BKN150
     FM202300 VRB05KT P6SM SCT030 SCT150=



000
FTUS46 KLOX 200500
TAFPMD
TAF
KPMD 200534Z 2006/2106 22008KT P6SM SKC
     FM200800 VRB03KT P6SM SCT200
     FM202100 25012KT P6SM BKN150
     FM210400 VRB05KT P6SM SCT150=



000
FTUS46 KLOX 200500
TAFWJF
TAF
KWJF 200534Z 2006/2106 25010KT P6SM SKC
     FM200800 VRB03KT P6SM SCT200
     FM202100 25014KT P6SM BKN150
     FM210500 VRB05KT P6SM SCT150=



000
FTUS46 KLOX 200500
TAFVNY
TAF
KVNY 200534Z 2006/2106 VRB03KT P6SM SKC
     FM201000 VRB05KT 6SM BR BKN010
     FM201700 VRB03KT P6SM BKN015
     FM201900 16007KT P6SM SCT020 BKN150
     FM202300 VRB05KT P6SM SCT030 SCT150=



000
FTUS46 KLOX 200500
TAFSMX
TAF
KSMX 200530Z 2006/2106 VRB05KT 6SM BR SCT004
      TEMPO 2006/2009 BKN004
     FM200900 VRB03KT 4SM -DZ OVC004
     FM201700 VRB03KT P6SM OVC015
     FM202000 30012KT P6SM BKN025
     FM210400 VRB05KT P6SM OVC020=



000
FTUS46 KLOX 200500 AAA
TAFSMX
TAF AMD
KSMX 200530Z 2006/2106 VRB05KT 6SM BR SCT004
     FM200900 VRB03KT 4SM -DZ OVC004
     FM201700 VRB03KT P6SM OVC015
     FM202000 30012KT P6SM BKN025
     FM210400 VRB05KT P6SM OVC020=



000
FTUS46 KLOX 200500
TAFLAX
TAF
KLAX 200527Z 2006/2112 26007KT P6SM BKN013
     FM200800 VRB03KT P6SM OVC013
     FM201700 VRB03KT P6SM BKN020
     FM202000 25012KT P6SM SCT022 BKN150
     FM210400 25006KT P6SM BKN015
     FM210800 VRB05KT P6SM OVC015=



000
FTUS46 KLOX 200500
TAFLGB
TAF
KLGB 200527Z 2006/2106 28007KT P6SM SKC
     FM200800 VRB03KT P6SM OVC015
     FM201700 VRB03KT P6SM BKN020
     FM202000 21007KT P6SM SCT022 BKN150
     FM210300 VRB05KT P6SM BKN020=



000
FTUS46 KLOX 200500 AAA
TAFLGB
TAF AMD
KLGB 200502Z 2005/2024 28007KT P6SM SKC
     FM200700 VRB03KT P6SM OVC015
     FM201700 VRB03KT P6SM BKN020
     FM202000 21007KT P6SM SCT022 BKN150=



000
FTUS46 KLOX 200400 AAA
TAFWJF
TAF AMD
KWJF 200410Z 2004/2024 25012KT P6SM SKC
     FM200800 VRB03KT P6SM SCT200
     FM202100 25014KT P6SM BKN150=



000
FTUS46 KLOX 200400 AAA
TAFSMX
TAF AMD
KSMX 200409Z 2004/2024 29009KT P6SM BKN007 OVC011
     FM200900 VRB03KT 4SM -DZ OVC006
     FM201700 VRB03KT P6SM OVC015
     FM202000 30012KT P6SM BKN025=



000
FTUS46 KLOX 200200 AAA
TAFLAX
TAF AMD
KLAX 200256Z 2003/2106 26007KT P6SM BKN012
     FM200800 VRB03KT P6SM OVC012
     FM201700 VRB03KT P6SM BKN020
     FM202000 25012KT P6SM SCT022 BKN150
     FM210400 25006KT P6SM BKN015=



000
FTUS46 KLOX 192300
TAFWJF
TAF
KWJF 192335Z 2000/2024 23012KT P6SM SKC
     FM200500 VRB03KT P6SM SCT200
     FM202100 25014KT P6SM BKN150=



000
FTUS46 KLOX 192300
TAFSBP
TAF
KSBP 192335Z 2000/2024 30012KT P6SM SKC
     FM200300 30007KT P6SM OVC015
     FM200800 VRB03KT 6SM -DZ OVC015
     FM201700 VRB03KT P6SM OVC020
     FM202000 30012KT P6SM SCT025 BKN150=



000
FTUS46 KLOX 192300
TAFLAX
TAF
KLAX 192335Z 2000/2106 26010KT P6SM FEW025
     FM200400 24006KT P6SM BKN012
     FM200800 VRB03KT P6SM OVC012
     FM201700 VRB03KT P6SM BKN020
     FM202000 25012KT P6SM SCT022 BKN150
     FM210400 25006KT P6SM BKN015=



000
FTUS46 KLOX 192300
TAFVNY
TAF
KVNY 192335Z 2000/2024 16007KT P6SM SKC
     FM200300 VRB03KT P6SM SKC
     FM201000 VRB05KT 6SM BR BKN010
     FM201700 VRB03KT P6SM BKN015
     FM201900 16007KT P6SM SCT020 BKN150=



000
FTUS46 KLOX 192300
TAFSBA
TAF
KSBA 192335Z 2000/2024 25008KT P6SM SKC
     FM200200 VRB03KT P6SM SKC
     FM201100 VRB03KT P6SM BKN012
     FM201700 15007KT P6SM BKN018 BKN150
     FM202000 24008KT P6SM SCT020 BKN150=



000
FTUS46 KLOX 192300
TAFPMD
TAF
KPMD 192335Z 2000/2024 25010KT P6SM SKC
     FM200500 VRB03KT P6SM SCT200
     FM202100 25012KT P6SM BKN150=



000
FTUS46 KLOX 192300
TAFBUR
TAF
KBUR 192335Z 2000/2024 18007KT P6SM SKC
     FM200300 VRB03KT P6SM SKC
     FM200900 VRB03KT 6SM BR BKN010
     FM201700 VRB03KT P6SM BKN015
     FM201900 18009KT P6SM SCT020 BKN150=



000
FTUS46 KLOX 192300
TAFLGB
TAF
KLGB 192335Z 2000/2024 28007KT P6SM SKC
     FM200500 VRB03KT P6SM OVC015
     FM201700 VRB03KT P6SM BKN020
     FM202000 21007KT P6SM SCT022 BKN150=



000
FTUS46 KLOX 192300
TAFPRB
TAF
KPRB 192335Z 2000/2024 20012KT P6SM SKC
     FM200300 VRB03KT P6SM SKC
     FM200700 VRB03KT P6SM OVC015
     FM201900 28010KT P6SM SCT025 BKN150=



000
FTUS46 KLOX 192300
TAFSMX
TAF
KSMX 192335Z 2000/2024 31012KT P6SM SKC
     FM200200 VRB03KT P6SM OVC012
     FM200900 VRB03KT 6SM -DZ OVC009
     FM201700 VRB03KT P6SM OVC015
     FM202000 30012KT P6SM BKN025=



000
FTUS46 KLOX 192300
TAFSBA
TAF
KSBA 192335Z 2000/2024 25008KT P6SM SKC
     FM200200 VRB03KT P6SM SKC
     FM201100 VRB03KT P6SM BKN012
     FM201700 15007KT P6SM BKN018 BKN150
     FM202000 24008KT P6SM SCT020 BKN150=



000
FTUS46 KLOX 192300
TAFSBP
TAF
KSBP 192335Z 2000/2024 30012KT P6SM SKC
     FM200300 30007KT P6SM OVC015
     FM200800 VRB03KT 6SM -DZ OVC015
     FM201700 VRB03KT P6SM OVC020
     FM202000 30012KT P6SM SCT025 BKN150=



000
FTUS46 KLOX 192300
TAFLGB
TAF
KLGB 192335Z 2000/2024 28007KT P6SM SKC
     FM200500 VRB03KT P6SM OVC015
     FM201700 VRB03KT P6SM BKN020
     FM202000 21007KT P6SM SCT022 BKN150=



000
FTUS46 KLOX 192300
TAFBUR
TAF
KBUR 192335Z 2000/2024 18007KT P6SM SKC
     FM200300 VRB03KT P6SM SKC
     FM200900 VRB03KT 6SM BR BKN010
     FM201700 VRB03KT P6SM BKN015
     FM201900 18009KT P6SM SCT020 BKN150=



000
FTUS46 KLOX 192300
TAFWJF
TAF
KWJF 192335Z 2000/2024 23012KT P6SM SKC
     FM200500 VRB03KT P6SM SCT200
     FM202100 25014KT P6SM BKN150=



000
FTUS46 KLOX 192300
TAFPMD
TAF
KPMD 192335Z 2000/2024 25010KT P6SM SKC
     FM200500 VRB03KT P6SM SCT200
     FM202100 25012KT P6SM BKN150=



000
FTUS46 KLOX 192300
TAFPRB
TAF
KPRB 192335Z 2000/2024 20012KT P6SM SKC
     FM200300 VRB03KT P6SM SKC
     FM200700 VRB03KT P6SM OVC015
     FM201900 28010KT P6SM SCT025 BKN150=



000
FTUS46 KLOX 192300
TAFLAX
TAF
KLAX 192335Z 2000/2106 26010KT P6SM FEW025
     FM200400 24006KT P6SM BKN012
     FM200800 VRB03KT P6SM OVC012
     FM201700 VRB03KT P6SM BKN020
     FM202000 25012KT P6SM SCT022 BKN150
     FM210400 25006KT P6SM BKN015=



000
FTUS46 KLOX 192300
TAFSMX
TAF
KSMX 192335Z 2000/2024 31012KT P6SM SKC
     FM200200 VRB03KT P6SM OVC012
     FM200900 VRB03KT 6SM -DZ OVC009
     FM201700 VRB03KT P6SM OVC015
     FM202000 30012KT P6SM BKN025=



000
FTUS46 KLOX 192300
TAFVNY
TAF
KVNY 192335Z 2000/2024 16007KT P6SM SKC
     FM200300 VRB03KT P6SM SKC
     FM201000 VRB05KT 6SM BR BKN010
     FM201700 VRB03KT P6SM BKN015
     FM201900 16007KT P6SM SCT020 BKN150=



000
FTUS46 KLOX 192100 AAA
TAFSMX
TAF AMD
KSMX 192110Z 1921/2018 31012KT P6SM SKC
     FM200300 VRB03KT P6SM OVC013
     FM201000 VRB03KT 5SM BR OVC009=



000
FTUS46 KLOX 192000 AAA
TAFLAX
TAF AMD
KLAX 192032Z 1921/2024 26010G15KT P6SM SKC
     FM200400 24006KT P6SM BKN010
     FM200800 VRB03KT 4SM BR OVC007
     FM201100 VRB03KT 5SM BR OVC011
     FM201700 VRB03KT P6SM BKN017
     FM201900 25012KT P6SM SCT022=



000
FTUS46 KLOX 191900 AAA
TAFLGB
TAF AMD
KLGB 191947Z 1920/2018 21007KT P6SM SCT020
      TEMPO 1920/1921 BKN025
     FM192300 28007KT P6SM SKC
     FM200500 VRB03KT 4SM BR BKN010
     FM200800 VRB03KT 2SM BR OVC007
     FM201100 VRB03KT 5SM BR OVC011=



000
FTUS46 KLOX 191900 AAA
TAFSBA
TAF AMD
KSBA 191914Z 1919/2018 16008KT P6SM SCT025
     FM192100 23007KT P6SM SCT030
     FM200200 VRB03KT P6SM SKC
     FM201100 VRB03KT P6SM BKN013=



000
FTUS46 KLOX 191700
TAFBUR
TAF
KBUR 191731Z 1918/2018 15004KT P6SM SKC
     FM192000 18007KT P6SM SKC
     FM200200 VRB03KT P6SM SKC
     FM200900 VRB03KT 6SM BR BKN015=



000
FTUS46 KLOX 191700
TAFLAX
TAF
KLAX 191731Z 1918/2024 15006KT P6SM SCT013
     FM192000 26011KT P6SM SKC
     FM200400 24006KT P6SM BKN010
     FM200800 VRB03KT 4SM BR OVC007
     FM201100 VRB03KT 5SM BR OVC011
     FM201700 VRB03KT P6SM BKN017
     FM201900 25012KT P6SM SCT022=



000
FTUS46 KLOX 191700
TAFWJF
TAF
KWJF 191731Z 1918/2018 VRB04KT P6SM SKC
     FM192100 22008KT P6SM SKC
     FM200500 VRB03KT P6SM SKC=



000
FTUS46 KLOX 191700
TAFLGB
TAF
KLGB 191731Z 1918/2018 00000KT P6SM SCT020
     FM192000 19008KT P6SM SKC
     FM192300 28007KT P6SM SKC
     FM200500 VRB03KT 4SM BR BKN010
     FM200800 VRB03KT 2SM BR OVC007
     FM201100 VRB03KT 5SM BR OVC011=



000
FTUS46 KLOX 191700
TAFVNY
TAF
KVNY 191731Z 1918/2018 00000KT P6SM SKC
     FM192100 16007KT P6SM SKC
     FM200200 VRB03KT P6SM SKC
     FM201000 VRB05KT 6SM BR BKN015=



000
FTUS46 KLOX 191700
TAFSMX
TAF
KSMX 191731Z 1918/2018 00000KT P6SM SKC
     FM192000 30012KT P6SM SKC
     FM200300 VRB03KT P6SM OVC013
     FM201000 VRB03KT 5SM BR OVC009=



000
FTUS46 KLOX 191700
TAFSBA
TAF
KSBA 191731Z 1918/2018 14008KT P6SM SCT015
      TEMPO 1918/1920 BKN019
     FM192100 23007KT P6SM SCT030
     FM200200 VRB03KT P6SM SKC
     FM201100 VRB03KT P6SM BKN013=



000
FTUS46 KLOX 191700
TAFPMD
TAF
KPMD 191731Z 1918/2018 VRB04KT P6SM SKC
     FM192100 30006KT P6SM SKC
     FM192300 25010KT P6SM SKC
     FM200500 VRB03KT P6SM SKC=



000
FTUS46 KLOX 191700
TAFSBP
TAF
KSBP 191731Z 1918/2018 00000KT P6SM SKC
     FM192100 30012KT P6SM SKC
     FM200400 VRB03KT P6SM OVC017=



000
FTUS46 KLOX 191700
TAFPRB
TAF
KPRB 191731Z 1918/2018 00000KT P6SM SKC
     FM192200 20009KT P6SM SKC
     FM200300 VRB03KT P6SM SKC
     FM200700 VRB03KT P6SM OVC018=



000
FTUS46 KLOX 191400 AAB
TAFLAX
TAF AMD
KLAX 191438Z 1915/2018 VRB03KT 6SM BR SCT015
     FM191700 VRB03KT P6SM SCT020
     FM192000 26012KT P6SM SKC
     FM200300 24007KT P6SM SCT015
     FM200500 25005KT 4SM BR BKN010
     FM200900 VRB03KT 2SM BR OVC007
     FM201700 VRB03KT P6SM SCT010=



000
FTUS46 KLOX 191300 AAB
TAFSMX
TAF AMD
KSMX 191324Z 1913/2012 VRB05KT P6SM SKC
     FM191400 VRB03KT 4SM BR SCT010
     FM191700 VRB03KT 6SM BR SCT015
     FM192000 30012KT P6SM SKC
     FM200300 VRB05KT P6SM SKC
     FM200800 VRB03KT 5SM BR BKN010=



000
FTUS46 KLOX 191300 AAA
TAFLGB
TAF AMD
KLGB 191322Z 1913/2012 VRB03KT P6SM SKC
     FM191400 VRB03KT 6SM BR SCT015
     FM191800 VRB03KT P6SM SCT020
     FM192000 19008KT P6SM SKC
     FM200500 VRB05KT 4SM BR BKN010
     FM200900 VRB03KT 2SM BR OVC007=



000
FTUS46 KLOX 191300 AAA
TAFLAX
TAF AMD
KLAX 191321Z 1913/2018 VRB05KT P6SM SKC
     FM191400 VRB03KT 6SM BR SCT015
     FM191700 VRB03KT P6SM SCT020
     FM192000 26012KT P6SM SKC
     FM200300 24007KT P6SM SCT015
     FM200500 25005KT 4SM BR BKN010
     FM200900 VRB03KT 2SM BR OVC007
     FM201700 VRB03KT P6SM SCT010=



000
FTUS46 KLOX 191300 AAA
TAFSBP
TAF AMD
KSBP 191319Z 1913/2012 VRB05KT P6SM SKC
     FM191400 VRB05KT 6SM BR SCT015
     FM191700 VRB05KT P6SM SCT015
     FM192100 30012KT P6SM SKC
     FM200400 VRB05KT P6SM SKC
     FM200900 VRB03KT 6SM BR BKN010=



000
FTUS46 KLOX 191200 AAA
TAFSMX
TAF AMD
KSMX 191255Z 1913/2012 VRB05KT P6SM SKC
     FM191400 VRB03KT 3SM BR BKN010
     FM191700 VRB03KT P6SM SKC
     FM192000 30012KT P6SM SKC
     FM200300 VRB05KT P6SM SKC
     FM200800 VRB03KT 5SM BR BKN010=



000
FTUS46 KLOX 191100 RRA
TAFSBA
TAF
KSBA 191138Z 1912/2012 VRB05KT P6SM SKC
     FM191400 VRB03KT 6SM BR SKC
     FM191800 16005KT P6SM SKC
     FM192100 23007KT P6SM SKC
     FM200200 VRB05KT P6SM SKC=



000
FTUS46 KLOX 191100 RRA
TAFSMX
TAF
KSMX 191137Z 1912/2012 VRB05KT P6SM SKC
     FM191300 VRB03KT 3SM BR BKN010
     FM191800 VRB03KT P6SM SKC
     FM192000 30012KT P6SM SKC
     FM200300 VRB05KT P6SM SKC
     FM200800 VRB03KT 5SM BR BKN010=



000
FTUS46 KLOX 191100 RRA
TAFSBP
TAF
KSBP 191137Z 1912/2012 VRB05KT P6SM SKC
     FM191400 VRB05KT 6SM BR BKN015
     FM191800 30004KT P6SM SCT015
     FM192100 30012KT P6SM SKC
     FM200400 VRB05KT P6SM SKC
     FM200900 VRB03KT 6SM BR BKN010=



000
FTUS46 KLOX 191100 RRA
TAFPRB
TAF
KPRB 191137Z 1912/2012 VRB05KT P6SM SKC
     FM192200 20009KT P6SM SKC
     FM200500 VRB05KT P6SM SKC=



000
FTUS46 KLOX 191100
TAFWJF
TAF
KWJF 191136Z 1912/2012 VRB05KT P6SM SKC
     FM192100 22008KT P6SM SKC
     FM200500 VRB05KT P6SM SKC=



000
FTUS46 KLOX 191100
TAFPMD
TAF
KPMD 191136Z 1912/2012 VRB05KT P6SM SKC
     FM192100 32006KT P6SM SKC
     FM192300 25010KT P6SM SKC
     FM200300 VRB05KT P6SM SKC=



000
FTUS46 KLOX 191100
TAFBUR
TAF
KBUR 191136Z 1912/2012 VRB05KT P6SM SKC
     FM191400 VRB03KT 6SM HZ SCT020
     FM191700 VRB03KT P6SM SKC
     FM192000 18007KT P6SM SKC
     FM201100 VRB05KT 6SM BR BKN015=



000
FTUS46 KLOX 191100
TAFVNY
TAF
KVNY 191136Z 1912/2012 VRB03KT P6SM SKC
     FM191400 VRB03KT 6SM HZ SCT020
     FM191700 VRB03KT P6SM SKC
     FM192100 16007KT P6SM SKC
     FM201100 VRB05KT 6SM BR BKN015=



000
FTUS46 KLOX 191100
TAFLAX
TAF
KLAX 191135Z 1912/2018 VRB05KT P6SM SKC
     FM191400 VRB03KT 6SM BR BKN015
     FM191700 VRB03KT 6SM HZ SCT020
     FM192000 26012KT P6SM SKC
     FM200300 24007KT P6SM SCT015
     FM200500 25005KT 4SM BR BKN010
     FM200900 VRB03KT 2SM BR OVC007
     FM201700 VRB03KT P6SM SCT010=



000
FTUS46 KLOX 191100
TAFLGB
TAF
KLGB 191135Z 1912/2012 VRB03KT P6SM SKC
     FM191400 VRB03KT P6SM BKN015
     FM191600 VRB03KT 6SM BR OVC015
     FM191800 VRB03KT 6SM HZ SCT020
     FM192000 19008KT P6SM SKC
     FM200500 VRB05KT 4SM BR BKN010
     FM200900 VRB03KT 2SM BR OVC007=



000
FTUS46 KLOX 190900 AAA
TAFSMX
TAF AMD
KSMX 190911Z 1909/2006 VRB05KT P6SM SKC
     FM191300 VRB03KT 3SM BR BKN010
     FM191800 VRB03KT P6SM SKC
     FM192000 30012KT P6SM SKC
     FM200300 VRB05KT P6SM SKC=



000
FTUS46 KLOX 190800 AAA
TAFLAX
TAF AMD
KLAX 190857Z 1909/2012 VRB03KT P6SM SKC
     FM191200 VRB03KT P6SM SCT015
     FM191400 VRB03KT 6SM BR BKN015
     FM191700 VRB03KT 6SM HZ SCT020
     FM192000 26012KT P6SM SKC
     FM200300 24007KT P6SM SCT015
     FM200500 25005KT 4SM BR BKN010
     FM200900 VRB03KT 2SM BR OVC007=



    US Dept of Commerce
    National Oceanic and Atmospheric Administration
    National Weather Service
    1325 East West Highway
    Silver Spring, MD 20910
    Page Author: NWS Internet Services Team
Disclaimer
Information Quality
Credits
Glossary
Privacy Policy
Freedom of Information Act (FOIA)
About Us
Career Opportunities